createdAt,value
2022-10-01T00:01:19.928Z,11.23
2022-10-01T00:03:47.887Z,9.33
2022-10-01T00:06:20.541Z,8.83
2022-10-01T00:08:50.896Z,9.63
2022-10-01T00:11:26.273Z,12.13
2022-10-01T00:13:54.857Z,8.83
2022-10-01T00:16:28.458Z,10.93
2022-10-01T00:18:56.305Z,12.67
2022-10-01T00:21:35.482Z,11.23
2022-10-01T00:24:06.469Z,11.13
2022-10-01T00:26:37.673Z,9.90
2022-10-01T00:29:14.979Z,12.27
2022-10-01T00:31:42.952Z,10.20
2022-10-01T00:34:14.970Z,9.43
2022-10-01T00:36:42.231Z,8.97
2022-10-01T00:39:12.004Z,13.60
2022-10-01T00:41:39.212Z,10.83
2022-10-01T00:44:45.331Z,13.40
2022-10-01T00:47:41.021Z,13.03
2022-10-01T00:50:30.506Z,9.27
2022-10-01T00:53:06.639Z,11.23
2022-10-01T00:55:51.866Z,12.90
2022-10-01T00:58:20.249Z,11.30
2022-10-01T01:00:48.893Z,9.87
2022-10-01T01:03:16.731Z,9.83
2022-10-01T01:05:44.079Z,9.17
2022-10-01T01:08:11.470Z,13.20
2022-10-01T01:10:54.203Z,12.87
2022-10-01T01:13:51.168Z,11.07
2022-10-01T01:16:38.178Z,11.63
2022-10-01T01:19:42.744Z,11.10
2022-10-01T01:22:13.509Z,12.07
2022-10-01T01:25:08.356Z,10.33
2022-10-01T01:28:23.228Z,10.03
2022-10-01T01:30:58.094Z,10.90
2022-10-01T01:33:29.133Z,9.57
2022-10-01T01:36:07.751Z,10.10
2022-10-01T01:38:43.465Z,9.43
2022-10-01T01:41:12.456Z,10.33
2022-10-01T01:43:45.220Z,12.00
2022-10-01T01:46:17.585Z,11.57
2022-10-01T01:48:49.446Z,13.20
2022-10-01T01:51:58.360Z,9.77
2022-10-01T01:54:25.446Z,11.17
2022-10-01T01:56:55.786Z,11.37
2022-10-01T01:59:23.055Z,10.80
2022-10-01T02:01:51.086Z,11.73
2022-10-01T02:04:42.815Z,11.17
2022-10-01T02:07:43.033Z,8.33
2022-10-01T02:10:45.206Z,12.27
2022-10-01T02:13:48.057Z,10.27
2022-10-01T02:16:48.134Z,12.70
2022-10-01T02:19:31.270Z,10.50
2022-10-01T02:22:23.551Z,14.90
2022-10-01T02:24:57.586Z,14.40
2022-10-01T02:27:44.395Z,14.73
2022-10-01T02:30:12.675Z,9.97
2022-10-01T02:32:44.576Z,11.73
2022-10-01T02:35:17.519Z,10.13
2022-10-01T02:37:49.084Z,12.40
2022-10-01T02:40:22.364Z,12.70
2022-10-01T02:42:55.016Z,13.27
2022-10-01T02:45:24.742Z,9.97
2022-10-01T02:48:02.210Z,11.33
2022-10-01T02:50:51.691Z,9.20
2022-10-01T02:53:41.528Z,12.20
2022-10-01T02:56:10.596Z,12.40
2022-10-01T02:58:37.523Z,12.10
2022-10-01T03:01:04.519Z,14.40
2022-10-01T03:03:32.356Z,11.83
2022-10-01T03:05:59.333Z,12.43
2022-10-01T03:08:26.316Z,12.17
2022-10-01T03:10:53.262Z,12.23
2022-10-01T03:13:21.946Z,11.37
2022-10-01T03:15:48.984Z,10.30
2022-10-01T03:18:16.002Z,8.97
2022-10-01T03:20:42.933Z,13.97
2022-10-01T03:23:09.856Z,13.27
2022-10-01T03:25:37.200Z,17.47
2022-10-01T03:28:04.375Z,11.00
2022-10-01T03:30:32.771Z,15.20
2022-10-01T03:32:59.828Z,11.20
2022-10-01T03:35:26.798Z,11.37
2022-10-01T03:37:53.897Z,11.93
2022-10-01T03:40:20.833Z,9.83
2022-10-01T03:42:47.828Z,12.37
2022-10-01T03:45:14.915Z,8.67
2022-10-01T03:47:42.255Z,13.87
2022-10-01T03:50:09.340Z,12.43
2022-10-01T03:52:36.485Z,10.63
2022-10-01T03:55:03.742Z,8.97
2022-10-01T03:57:30.792Z,12.07
2022-10-01T03:59:57.773Z,12.10
2022-10-01T04:02:25.403Z,11.73
2022-10-01T04:04:52.600Z,12.73
2022-10-01T04:07:19.554Z,12.50
2022-10-01T04:09:46.537Z,12.23
2022-10-01T04:12:13.632Z,12.73
2022-10-01T04:14:40.636Z,9.00
2022-10-01T04:17:07.640Z,12.50
2022-10-01T04:19:34.647Z,10.37
2022-10-01T04:22:01.565Z,8.30
2022-10-01T04:24:28.509Z,12.73
2022-10-01T04:26:55.481Z,9.60
2022-10-01T04:29:22.495Z,11.43
2022-10-01T04:31:49.492Z,12.17
2022-10-01T04:34:16.425Z,9.07
2022-10-01T04:36:43.368Z,12.57
2022-10-01T04:39:10.487Z,9.20
2022-10-01T04:41:40.219Z,11.80
2022-10-01T04:44:07.253Z,12.00
2022-10-01T04:46:34.568Z,12.07
2022-10-01T04:49:01.890Z,9.70
2022-10-01T04:51:28.907Z,11.23
2022-10-01T04:53:55.935Z,11.53
2022-10-01T04:56:22.932Z,11.10
2022-10-01T04:58:50.362Z,10.93
2022-10-01T05:01:17.450Z,10.50
2022-10-01T05:03:44.517Z,10.87
2022-10-01T05:06:11.623Z,9.33
2022-10-01T05:08:39.078Z,9.93
2022-10-01T05:11:06.312Z,10.37
2022-10-01T05:13:33.327Z,11.03
2022-10-01T05:16:03.302Z,10.33
2022-10-01T05:18:30.484Z,9.03
2022-10-01T05:20:57.961Z,8.60
2022-10-01T05:23:27.946Z,8.50
2022-10-01T05:25:58.606Z,7.57
2022-10-01T05:28:28.062Z,8.20
2022-10-01T05:30:58.746Z,8.63
2022-10-01T05:34:05.436Z,8.30
2022-10-01T05:36:34.880Z,8.77
2022-10-01T05:39:02.204Z,8.60
2022-10-01T05:41:32.735Z,9.07
2022-10-01T05:44:00.007Z,8.97
2022-10-01T05:46:29.427Z,9.47
2022-10-01T05:48:59.802Z,8.20
2022-10-01T05:51:32.929Z,8.47
2022-10-01T05:54:04.528Z,8.40
2022-10-01T05:56:34.016Z,9.23
2022-10-01T05:59:04.388Z,7.67
2022-10-01T06:01:32.618Z,7.27
2022-10-01T06:04:00.012Z,7.30
2022-10-01T06:06:39.606Z,8.57
2022-10-01T06:09:06.619Z,8.27
2022-10-01T06:11:37.039Z,8.50
2022-10-01T06:14:04.159Z,7.63
2022-10-01T06:16:31.887Z,7.87
2022-10-01T06:21:43.676Z,7.77
2022-10-01T06:24:11.090Z,7.73
2022-10-01T06:26:38.644Z,6.60
2022-10-01T06:29:35.810Z,7.90
2022-10-01T06:32:02.950Z,7.43
2022-10-01T06:34:33.185Z,7.63
2022-10-01T06:37:00.258Z,7.40
2022-10-01T06:39:33.169Z,7.37
2022-10-01T06:42:06.221Z,7.67
2022-10-01T06:44:47.271Z,7.30
2022-10-01T06:47:32.842Z,6.70
2022-10-01T06:50:33.668Z,7.13
2022-10-01T06:53:02.101Z,6.87
2022-10-01T06:55:51.984Z,6.77
2022-10-01T06:58:32.962Z,6.73
2022-10-01T07:01:11.594Z,7.03
2022-10-01T07:03:38.557Z,6.30
2022-10-01T07:06:26.519Z,6.43
2022-10-01T07:09:11.873Z,6.60
2022-10-01T07:11:43.003Z,6.27
2022-10-01T07:14:40.017Z,7.00
2022-10-01T07:17:21.704Z,6.50
2022-10-01T07:19:49.007Z,6.57
2022-10-01T07:25:00.455Z,6.70
2022-10-01T07:27:27.706Z,6.67
2022-10-01T07:29:59.063Z,6.77
2022-10-01T07:32:26.465Z,6.07
2022-10-01T07:34:53.497Z,6.77
2022-10-01T07:37:21.486Z,6.67
2022-10-01T07:39:48.531Z,6.67
2022-10-01T07:42:15.773Z,6.80
2022-10-01T07:44:45.975Z,6.27
2022-10-01T07:47:12.977Z,6.50
2022-10-01T07:49:39.990Z,6.20
2022-10-01T07:52:12.392Z,6.20
2022-10-01T07:54:40.315Z,6.57
2022-10-01T07:57:08.012Z,5.97
2022-10-01T07:59:35.037Z,6.27
2022-10-01T08:02:05.189Z,7.03
2022-10-01T08:05:02.453Z,6.20
2022-10-01T08:07:35.711Z,6.60
2022-10-01T08:10:04.652Z,6.33
2022-10-01T08:12:33.429Z,6.17
2022-10-01T08:15:02.188Z,6.10
2022-10-01T08:17:29.789Z,6.20
2022-10-01T08:19:59.624Z,6.17
2022-10-01T08:22:29.241Z,5.97
2022-10-01T08:24:56.242Z,6.33
2022-10-01T08:27:28.156Z,5.50
2022-10-01T08:29:55.467Z,5.93
2022-10-01T08:32:27.444Z,6.57
2022-10-01T08:34:57.552Z,5.87
2022-10-01T08:37:29.147Z,4.73
2022-10-01T08:39:57.266Z,5.70
2022-10-01T08:42:53.808Z,5.37
2022-10-01T08:45:49.446Z,5.37
2022-10-01T08:48:57.312Z,4.97
2022-10-01T08:52:04.575Z,4.90
2022-10-01T08:54:48.383Z,5.30
2022-10-01T08:57:43.358Z,5.70
2022-10-01T09:00:18.921Z,5.17
2022-10-01T09:02:51.367Z,4.83
2022-10-01T09:06:07.056Z,5.13
2022-10-01T09:09:45.277Z,5.10
2022-10-01T09:12:52.368Z,5.03
2022-10-01T09:15:53.304Z,4.50
2022-10-01T09:18:44.454Z,4.80
2022-10-01T09:21:52.246Z,4.03
2022-10-01T09:24:43.734Z,5.03
2022-10-01T09:27:24.773Z,4.47
2022-10-01T09:30:03.090Z,3.73
2022-10-01T09:33:12.832Z,3.90
2022-10-01T09:36:14.339Z,3.70
2022-10-01T09:39:20.197Z,3.67
2022-10-01T09:41:48.419Z,3.40
2022-10-01T09:44:31.254Z,3.50
2022-10-01T09:46:58.387Z,3.17
2022-10-01T09:49:55.037Z,3.50
2022-10-01T09:52:29.184Z,3.43
2022-10-01T09:55:11.447Z,3.43
2022-10-01T09:57:47.931Z,3.80
2022-10-01T10:00:22.659Z,3.27
2022-10-01T10:02:54.022Z,2.80
2022-10-01T10:05:30.435Z,2.50
2022-10-01T10:08:12.099Z,2.40
2022-10-01T10:10:47.303Z,2.03
2022-10-01T10:13:39.248Z,2.17
2022-10-01T10:16:37.179Z,1.87
2022-10-01T10:19:26.398Z,1.90
2022-10-01T10:21:59.685Z,1.80
2022-10-01T10:24:35.996Z,1.87
2022-10-01T10:27:20.543Z,1.47
2022-10-01T10:29:47.575Z,1.70
2022-10-01T10:32:27.523Z,2.40
2022-10-01T10:35:04.721Z,1.47
2022-10-01T10:37:50.848Z,1.97
2022-10-01T10:40:29.069Z,2.10
2022-10-01T10:42:58.645Z,2.73
2022-10-01T10:45:38.736Z,2.63
2022-10-01T10:48:12.135Z,2.97
2022-10-01T10:50:45.332Z,2.97
2022-10-01T10:53:27.561Z,2.97
2022-10-01T10:56:07.219Z,3.27
2022-10-01T10:58:40.288Z,3.60
2022-10-01T11:01:13.588Z,3.10
2022-10-01T11:03:53.641Z,3.97
2022-10-01T11:06:21.002Z,4.10
2022-10-01T11:08:59.471Z,4.57
2022-10-01T11:11:50.596Z,4.83
2022-10-01T11:14:46.301Z,4.03
2022-10-01T11:17:49.462Z,5.07
2022-10-01T11:20:32.426Z,4.50
2022-10-01T11:23:56.754Z,5.03
2022-10-01T11:26:38.669Z,4.80
2022-10-01T11:30:15.286Z,4.67
2022-10-01T11:33:03.434Z,5.00
2022-10-01T11:36:01.603Z,5.17
2022-10-01T11:39:03.922Z,5.47
2022-10-01T11:42:04.505Z,4.83
2022-10-01T11:45:15.575Z,5.00
2022-10-01T11:48:00.271Z,5.60
2022-10-01T11:50:40.271Z,4.23
2022-10-01T11:53:33.299Z,4.23
2022-10-01T11:56:29.391Z,4.60
2022-10-01T11:59:41.443Z,5.03
2022-10-01T12:02:30.431Z,4.90
2022-10-01T12:05:31.732Z,3.80
2022-10-01T12:08:21.991Z,3.70
2022-10-01T12:11:05.385Z,3.20
2022-10-01T12:13:53.107Z,3.20
2022-10-01T12:17:14.790Z,3.30
2022-10-01T12:19:50.874Z,3.67
2022-10-01T12:22:30.994Z,3.40
2022-10-01T12:24:58.270Z,3.47
2022-10-01T12:28:22.127Z,2.97
2022-10-01T12:31:22.488Z,3.07
2022-10-01T12:34:45.259Z,4.47
2022-10-01T12:38:11.082Z,4.80
2022-10-01T12:41:25.493Z,5.37
2022-10-01T12:45:40.350Z,14.77
2022-10-01T12:48:32.303Z,3.80
2022-10-01T12:51:53.055Z,7.10
2022-10-01T12:54:53.284Z,8.00
2022-10-01T12:58:00.909Z,4.53
2022-10-01T13:00:42.160Z,3.93
2022-10-01T13:04:24.370Z,5.20
2022-10-01T13:07:50.237Z,25.07
2022-10-01T13:10:59.952Z,6.70
2022-10-01T13:13:35.675Z,14.67
2022-10-01T13:16:33.595Z,16.87
2022-10-01T13:19:38.351Z,5.03
2022-10-01T13:22:55.614Z,14.10
2022-10-01T13:25:48.120Z,11.70
2022-10-01T13:28:44.307Z,5.10
2022-10-01T13:31:19.678Z,10.27
2022-10-01T13:33:57.399Z,6.87
2022-10-01T13:36:35.633Z,4.40
2022-10-01T13:39:05.641Z,7.23
2022-10-01T13:41:34.881Z,13.37
2022-10-01T13:44:07.881Z,13.43
2022-10-01T13:47:00.870Z,10.77
2022-10-01T13:49:31.298Z,9.03
2022-10-01T13:51:59.026Z,7.30
2022-10-01T13:54:50.031Z,5.20
2022-10-01T13:57:39.178Z,3.93
2022-10-01T14:00:12.305Z,3.80
2022-10-01T14:03:27.182Z,3.40
2022-10-01T14:05:59.095Z,3.50
2022-10-01T14:08:50.069Z,3.50
2022-10-01T14:11:43.844Z,3.27
2022-10-01T14:14:45.400Z,3.67
2022-10-01T14:17:14.234Z,2.73
2022-10-01T14:19:49.755Z,6.13
2022-10-01T14:22:59.267Z,7.67
2022-10-01T14:25:53.654Z,5.90
2022-10-01T14:28:54.483Z,11.73
2022-10-01T14:31:51.331Z,17.90
2022-10-01T14:34:42.891Z,16.03
2022-10-01T14:37:17.649Z,10.37
2022-10-01T14:39:45.254Z,7.10
2022-10-01T14:42:18.829Z,4.10
2022-10-01T14:44:47.369Z,9.33
2022-10-01T14:47:27.836Z,22.37
2022-10-01T14:49:55.809Z,28.60
2022-10-01T14:52:31.444Z,17.60
2022-10-01T14:55:06.906Z,13.63
2022-10-01T14:57:43.434Z,9.70
2022-10-01T15:00:24.475Z,5.80
2022-10-01T15:03:07.776Z,3.40
2022-10-01T15:05:37.346Z,3.03
2022-10-01T15:08:22.340Z,3.00
2022-10-01T15:11:02.080Z,3.43
2022-10-01T15:13:36.485Z,3.07
2022-10-01T15:16:03.732Z,3.47
2022-10-01T15:18:32.017Z,3.40
2022-10-01T15:21:06.786Z,3.50
2022-10-01T15:23:38.731Z,12.67
2022-10-01T15:26:12.476Z,39.83
2022-10-01T15:28:39.543Z,39.17
2022-10-01T15:31:07.809Z,28.77
2022-10-01T15:33:40.473Z,5.53
2022-10-01T15:36:18.934Z,9.33
2022-10-01T15:38:49.203Z,3.17
2022-10-01T15:41:32.846Z,2.60
2022-10-01T15:44:05.301Z,2.20
2022-10-01T15:46:35.352Z,2.50
2022-10-01T15:49:15.094Z,2.40
2022-10-01T15:52:20.895Z,2.27
2022-10-01T15:54:57.364Z,2.00
2022-10-01T15:57:27.199Z,1.90
2022-10-01T15:59:56.746Z,1.73
2022-10-01T16:02:30.529Z,1.73
2022-10-01T16:05:06.633Z,2.27
2022-10-01T16:07:35.321Z,2.20
2022-10-01T16:10:42.275Z,9.50
2022-10-01T16:13:38.614Z,7.70
2022-10-01T16:16:31.230Z,8.47
2022-10-01T16:19:29.729Z,8.77
2022-10-01T16:22:31.816Z,9.03
2022-10-01T16:25:07.089Z,11.37
2022-10-01T16:28:03.916Z,15.60
2022-10-01T16:30:33.826Z,5.37
2022-10-01T16:33:05.097Z,3.10
2022-10-01T16:35:40.333Z,2.40
2022-10-01T16:38:09.061Z,2.30
2022-10-01T16:40:49.220Z,2.07
2022-10-01T16:43:24.254Z,2.10
2022-10-01T16:45:51.928Z,2.37
2022-10-01T16:48:24.631Z,2.83
2022-10-01T16:50:53.627Z,2.20
2022-10-01T16:53:20.896Z,2.50
2022-10-01T16:55:47.890Z,2.13
2022-10-01T16:58:15.663Z,2.27
2022-10-01T17:00:42.971Z,2.47
2022-10-01T17:03:22.231Z,2.80
2022-10-01T17:05:49.908Z,2.30
2022-10-01T17:08:17.077Z,2.73
2022-10-01T17:10:56.747Z,2.90
2022-10-01T17:13:27.971Z,2.27
2022-10-01T17:15:55.053Z,2.03
2022-10-01T17:18:22.678Z,2.67
2022-10-01T17:20:49.858Z,2.70
2022-10-01T17:23:19.819Z,2.90
2022-10-01T17:25:47.065Z,2.80
2022-10-01T17:28:18.313Z,2.50
2022-10-01T17:30:48.191Z,3.20
2022-10-01T17:33:22.390Z,2.90
2022-10-01T17:35:55.576Z,2.63
2022-10-01T17:38:23.921Z,5.27
2022-10-01T17:40:56.398Z,9.70
2022-10-01T17:43:23.918Z,27.13
2022-10-01T17:46:00.787Z,23.03
2022-10-01T17:48:29.854Z,21.00
2022-10-01T17:51:05.480Z,8.73
2022-10-01T17:53:41.136Z,46.73
2022-10-01T17:56:14.952Z,18.33
2022-10-01T17:58:45.219Z,7.73
2022-10-01T18:01:19.729Z,5.50
2022-10-01T18:03:47.636Z,10.87
2022-10-01T18:06:16.009Z,6.00
2022-10-01T18:08:58.439Z,7.90
2022-10-01T18:11:29.129Z,6.27
2022-10-01T18:13:56.123Z,5.23
2022-10-01T18:16:24.170Z,4.60
2022-10-01T18:21:48.440Z,3.93
2022-10-01T18:24:16.533Z,4.30
2022-10-01T18:26:45.656Z,4.03
2022-10-01T18:29:26.629Z,5.10
2022-10-01T18:32:16.500Z,3.73
2022-10-01T18:34:57.736Z,5.07
2022-10-01T18:37:39.987Z,5.43
2022-10-01T18:40:25.352Z,3.47
2022-10-01T18:43:09.326Z,7.17
2022-10-01T18:46:07.809Z,7.00
2022-10-01T18:49:07.515Z,7.83
2022-10-01T18:51:56.172Z,4.97
2022-10-01T18:54:34.638Z,6.47
2022-10-01T18:57:31.455Z,7.60
2022-10-01T19:00:24.077Z,10.57
2022-10-01T19:03:35.182Z,8.87
2022-10-01T19:06:41.436Z,13.83
2022-10-01T19:09:29.745Z,10.67
2022-10-01T19:12:43.692Z,7.27
2022-10-01T19:15:57.414Z,9.77
2022-10-01T19:18:51.730Z,8.43
2022-10-01T19:22:01.409Z,7.40
2022-10-01T19:24:42.376Z,7.03
2022-10-01T19:27:29.901Z,6.73
2022-10-01T19:30:17.524Z,7.37
2022-10-01T19:33:01.979Z,5.27
2022-10-01T19:35:41.695Z,6.10
2022-10-01T19:38:40.502Z,5.87
2022-10-01T19:41:27.123Z,4.37
2022-10-01T19:44:32.811Z,3.80
2022-10-01T19:48:30.707Z,4.70
2022-10-01T19:51:10.100Z,5.40
2022-10-01T19:53:39.552Z,5.57
2022-10-01T19:56:07.402Z,6.50
2022-10-01T19:58:34.650Z,5.93
2022-10-01T20:01:03.966Z,3.87
2022-10-01T20:03:45.046Z,6.07
2022-10-01T20:06:42.338Z,6.17
2022-10-01T20:09:24.538Z,6.40
2022-10-01T20:12:29.154Z,6.50
2022-10-01T20:15:40.871Z,6.67
2022-10-01T20:18:42.428Z,6.93
2022-10-01T20:21:40.405Z,9.53
2022-10-01T20:24:35.590Z,6.97
2022-10-01T20:27:35.511Z,8.00
2022-10-01T20:30:15.673Z,13.37
2022-10-01T20:33:38.769Z,5.80
2022-10-01T20:36:56.749Z,4.30
2022-10-01T20:39:42.512Z,5.57
2022-10-01T20:42:20.744Z,5.03
2022-10-01T20:44:47.824Z,4.13
2022-10-01T20:47:43.968Z,4.63
2022-10-01T20:50:43.717Z,4.30
2022-10-01T20:53:40.220Z,4.20
2022-10-01T20:56:37.932Z,3.60
2022-10-01T20:59:29.842Z,3.43
2022-10-01T21:02:25.275Z,3.93
2022-10-01T21:05:22.763Z,3.83
2022-10-01T21:08:01.133Z,3.47
2022-10-01T21:10:54.249Z,3.70
2022-10-01T21:13:30.197Z,3.90
2022-10-01T21:16:41.833Z,3.03
2022-10-01T21:19:39.853Z,3.67
2022-10-01T21:22:42.920Z,3.80
2022-10-01T21:25:41.093Z,3.07
2022-10-01T21:28:26.013Z,2.90
2022-10-01T21:31:49.183Z,2.70
2022-10-01T21:34:46.752Z,2.33
2022-10-01T21:38:09.567Z,3.03
2022-10-01T21:41:15.951Z,2.53
2022-10-01T21:44:08.886Z,2.30
2022-10-01T21:47:01.984Z,2.33
2022-10-01T21:49:42.112Z,2.80
2022-10-01T21:53:06.594Z,2.63
2022-10-01T21:56:16.688Z,3.00
2022-10-01T21:59:06.894Z,2.60
2022-10-01T22:02:01.820Z,2.27
2022-10-01T22:05:02.332Z,3.00
2022-10-01T22:07:42.760Z,3.00
2022-10-01T22:10:47.017Z,2.40
2022-10-01T22:13:29.607Z,5.33
2022-10-01T22:16:04.865Z,5.37
2022-10-01T22:18:49.202Z,3.10
2022-10-01T22:21:47.962Z,7.90
2022-10-01T22:24:26.692Z,6.17
2022-10-01T22:27:21.624Z,5.63
2022-10-01T22:30:10.887Z,4.07
2022-10-01T22:33:19.868Z,3.40
2022-10-01T22:36:15.699Z,3.07
2022-10-01T22:38:55.722Z,2.53
2022-10-01T22:41:52.773Z,3.30
2022-10-01T22:44:23.099Z,2.50
2022-10-01T22:47:02.528Z,2.87
2022-10-01T22:50:07.116Z,3.23
2022-10-01T22:53:18.106Z,3.20
2022-10-01T22:55:56.749Z,2.53
2022-10-01T22:59:04.282Z,2.37
2022-10-01T23:02:03.292Z,2.43
2022-10-01T23:05:45.117Z,2.83
2022-10-01T23:09:14.724Z,2.97
2022-10-01T23:12:20.046Z,3.40
2022-10-01T23:15:11.110Z,3.40
2022-10-01T23:18:43.858Z,3.50
2022-10-01T23:21:51.826Z,3.40
2022-10-01T23:25:31.565Z,2.93
2022-10-01T23:28:44.721Z,3.63
2022-10-01T23:31:46.225Z,2.50
2022-10-01T23:34:50.860Z,2.70
2022-10-01T23:38:08.793Z,3.53
2022-10-01T23:40:45.588Z,3.00
2022-10-01T23:43:34.395Z,2.97
2022-10-01T23:46:07.738Z,3.17
2022-10-01T23:49:14.704Z,2.80
2022-10-01T23:52:07.603Z,3.10
2022-10-01T23:55:18.879Z,1.90
2022-10-01T23:57:51.429Z,2.60
